createdAt,value
2022-11-29T00:02:18.283Z,5.40
2022-11-29T00:04:48.628Z,5.40
2022-11-29T00:07:15.622Z,5.40
2022-11-29T00:09:45.372Z,5.40
2022-11-29T00:12:15.279Z,5.40
2022-11-29T00:14:51.129Z,5.40
2022-11-29T00:17:18.109Z,5.50
2022-11-29T00:19:45.312Z,5.40
2022-11-29T00:22:12.270Z,5.40
2022-11-29T00:24:45.270Z,5.30
2022-11-29T00:27:12.390Z,5.30
2022-11-29T00:29:41.254Z,5.30
2022-11-29T00:32:08.421Z,5.30
2022-11-29T00:34:37.812Z,5.30
2022-11-29T00:37:04.729Z,5.30
2022-11-29T00:39:31.861Z,5.30
2022-11-29T00:41:58.863Z,5.30
2022-11-29T00:44:25.887Z,5.40
2022-11-29T00:46:52.843Z,5.30
2022-11-29T00:49:19.841Z,5.30
2022-11-29T00:51:47.618Z,5.30
2022-11-29T00:54:14.706Z,5.40
2022-11-29T00:56:41.956Z,5.30
2022-11-29T00:59:09.026Z,5.30
2022-11-29T01:01:36.100Z,5.30
2022-11-29T01:04:03.164Z,5.30
2022-11-29T01:06:30.310Z,5.40
2022-11-29T01:08:59.394Z,5.30
2022-11-29T01:11:27.863Z,5.30
2022-11-29T01:13:58.003Z,5.30
2022-11-29T01:16:26.181Z,5.40
2022-11-29T01:18:53.218Z,5.50
2022-11-29T01:21:24.027Z,5.50
2022-11-29T01:23:52.785Z,5.50
2022-11-29T01:26:28.704Z,5.40
2022-11-29T01:29:15.588Z,5.30
2022-11-29T01:31:49.246Z,5.30
2022-11-29T01:34:16.216Z,5.20
2022-11-29T01:36:46.111Z,5.20
2022-11-29T01:39:15.843Z,5.20
2022-11-29T01:41:42.761Z,5.20
2022-11-29T01:44:22.301Z,5.20
2022-11-29T01:46:49.815Z,5.30
2022-11-29T01:49:33.805Z,5.30
2022-11-29T01:52:07.717Z,5.30
2022-11-29T01:54:39.255Z,5.40
2022-11-29T01:57:09.094Z,5.30
2022-11-29T01:59:45.365Z,5.30
2022-11-29T02:02:34.639Z,5.30
2022-11-29T02:05:07.244Z,5.30
2022-11-29T02:07:34.362Z,5.30
2022-11-29T02:10:02.371Z,5.30
2022-11-29T02:12:43.105Z,5.20
2022-11-29T02:15:37.253Z,5.20
2022-11-29T02:18:21.020Z,5.20
2022-11-29T02:21:20.814Z,5.20
2022-11-29T02:24:02.796Z,5.10
2022-11-29T02:26:53.478Z,5.20
2022-11-29T02:29:32.116Z,5.10
2022-11-29T02:32:27.022Z,5.10
2022-11-29T02:35:08.338Z,5.10
2022-11-29T02:37:56.379Z,5.20
2022-11-29T02:40:28.527Z,5.20
2022-11-29T02:43:14.435Z,5.20
2022-11-29T02:46:01.524Z,5.20
2022-11-29T02:49:02.162Z,5.20
2022-11-29T02:52:00.915Z,5.10
2022-11-29T02:54:30.658Z,5.00
2022-11-29T02:57:04.355Z,5.10
2022-11-29T02:59:50.076Z,5.10
2022-11-29T03:02:51.255Z,5.10
2022-11-29T03:05:49.927Z,5.10
2022-11-29T03:08:58.831Z,5.10
2022-11-29T03:11:40.573Z,5.00
2022-11-29T03:14:28.322Z,5.00
2022-11-29T03:17:05.859Z,5.10
2022-11-29T03:19:59.121Z,5.10
2022-11-29T03:22:51.675Z,5.20
2022-11-29T03:26:00.855Z,5.20
2022-11-29T03:28:36.422Z,5.20
2022-11-29T03:31:21.564Z,5.10
2022-11-29T03:34:08.128Z,5.10
2022-11-29T03:36:47.465Z,5.20
2022-11-29T03:39:23.073Z,5.20
2022-11-29T03:41:57.389Z,5.20
2022-11-29T03:45:19.790Z,5.20
2022-11-29T03:47:52.070Z,5.20
2022-11-29T03:50:25.071Z,5.20
2022-11-29T03:53:03.133Z,5.10
2022-11-29T03:55:48.515Z,5.20
2022-11-29T03:58:45.597Z,5.20
2022-11-29T04:01:21.322Z,5.10
2022-11-29T04:04:16.057Z,5.10
2022-11-29T04:07:27.319Z,5.20
2022-11-29T04:10:17.178Z,5.20
2022-11-29T04:13:11.880Z,5.20
2022-11-29T04:16:09.631Z,5.20
2022-11-29T04:18:36.884Z,5.20
2022-11-29T04:21:28.402Z,5.20
2022-11-29T04:24:10.313Z,5.30
2022-11-29T04:27:10.786Z,5.20
2022-11-29T04:29:52.761Z,5.30
2022-11-29T04:32:41.147Z,5.20
2022-11-29T04:35:29.554Z,5.20
2022-11-29T04:38:15.233Z,5.20
2022-11-29T04:41:00.539Z,5.20
2022-11-29T04:43:47.608Z,5.10
2022-11-29T04:46:34.073Z,5.20
2022-11-29T04:49:19.481Z,5.20
2022-11-29T04:52:20.292Z,5.10
2022-11-29T04:55:13.231Z,5.10
2022-11-29T04:57:50.427Z,5.20
2022-11-29T05:00:21.425Z,5.10
2022-11-29T05:02:55.029Z,5.10
2022-11-29T05:05:51.654Z,5.10
2022-11-29T05:08:24.337Z,5.10
2022-11-29T05:11:12.414Z,5.20
2022-11-29T05:14:07.765Z,5.20
2022-11-29T05:16:43.022Z,5.20
2022-11-29T05:19:45.057Z,5.20
2022-11-29T05:22:39.815Z,5.10
2022-11-29T05:25:18.711Z,5.00
2022-11-29T05:28:13.242Z,5.00
2022-11-29T05:31:09.571Z,5.00
2022-11-29T05:34:03.413Z,5.00
2022-11-29T05:36:46.367Z,5.00
2022-11-29T05:39:31.362Z,5.00
2022-11-29T05:42:33.052Z,5.00
2022-11-29T05:45:06.482Z,5.10
2022-11-29T05:48:01.957Z,5.10
2022-11-29T05:50:43.138Z,5.30
2022-11-29T05:53:30.078Z,5.20
2022-11-29T05:56:10.715Z,5.20
2022-11-29T05:59:03.833Z,5.10
2022-11-29T06:01:48.728Z,5.20
2022-11-29T06:04:33.181Z,5.20
2022-11-29T06:07:17.872Z,5.20
2022-11-29T06:10:11.479Z,5.20
2022-11-29T06:12:38.949Z,5.20
2022-11-29T06:15:37.614Z,5.10
2022-11-29T06:18:22.821Z,5.20
2022-11-29T06:21:00.979Z,5.20
2022-11-29T06:23:30.834Z,5.10
2022-11-29T06:26:04.387Z,5.10
2022-11-29T06:28:56.142Z,5.10
2022-11-29T06:31:34.477Z,5.10
2022-11-29T06:34:30.657Z,5.20
2022-11-29T06:37:02.446Z,5.20
2022-11-29T06:39:29.541Z,5.20
2022-11-29T06:41:56.446Z,5.20
2022-11-29T06:44:23.590Z,5.30
2022-11-29T06:47:02.455Z,5.10
2022-11-29T06:49:36.086Z,5.10
2022-11-29T06:52:27.498Z,5.10
2022-11-29T06:55:17.222Z,5.00
2022-11-29T06:57:53.797Z,5.10
2022-11-29T07:00:27.194Z,5.10
2022-11-29T07:03:32.648Z,5.20
2022-11-29T07:06:12.606Z,5.20
2022-11-29T07:08:40.252Z,5.30
2022-11-29T07:11:10.172Z,5.20
2022-11-29T07:13:37.305Z,5.20
2022-11-29T07:16:14.594Z,5.20
2022-11-29T07:19:20.002Z,5.20
2022-11-29T07:21:52.611Z,5.10
2022-11-29T07:24:56.697Z,5.20
2022-11-29T07:27:44.409Z,5.10
2022-11-29T07:30:19.759Z,5.10
2022-11-29T07:33:18.965Z,5.10
2022-11-29T07:36:08.753Z,5.20
2022-11-29T07:38:59.616Z,5.30
2022-11-29T07:41:48.918Z,5.30
2022-11-29T07:44:39.855Z,5.30
2022-11-29T07:47:08.531Z,5.20
2022-11-29T07:49:35.384Z,5.20
2022-11-29T07:52:02.290Z,5.20
2022-11-29T07:54:30.125Z,5.20
2022-11-29T07:56:56.910Z,5.20
2022-11-29T07:59:23.730Z,5.30
2022-11-29T08:01:50.617Z,5.30
2022-11-29T08:04:17.487Z,5.30
2022-11-29T08:06:44.291Z,5.30
2022-11-29T08:09:11.247Z,5.30
2022-11-29T08:11:39.389Z,5.20
2022-11-29T08:14:06.321Z,5.30
2022-11-29T08:16:33.463Z,5.30
2022-11-29T08:19:00.447Z,5.40
2022-11-29T08:21:27.402Z,5.40
2022-11-29T08:23:54.236Z,5.40
2022-11-29T08:26:24.432Z,5.40
2022-11-29T08:28:55.109Z,5.40
2022-11-29T08:31:21.966Z,5.40
2022-11-29T08:33:48.860Z,5.40
2022-11-29T08:36:19.102Z,5.40
2022-11-29T08:38:46.406Z,5.50
2022-11-29T08:41:15.152Z,5.50
2022-11-29T08:43:42.073Z,5.50
2022-11-29T08:46:12.515Z,5.50
2022-11-29T08:48:43.659Z,5.40
2022-11-29T08:51:10.650Z,5.50
2022-11-29T08:53:44.774Z,5.50
2022-11-29T08:57:04.471Z,5.50
2022-11-29T08:59:05.911Z,5.50
2022-11-29T09:01:33.102Z,5.50
2022-11-29T09:03:59.984Z,5.50
2022-11-29T09:06:38.543Z,5.50
2022-11-29T09:09:06.515Z,5.60
2022-11-29T09:11:35.724Z,5.60
2022-11-29T09:14:05.760Z,5.60
2022-11-29T09:16:37.894Z,5.50
2022-11-29T09:19:05.873Z,5.60
2022-11-29T09:21:34.879Z,5.60
2022-11-29T09:24:03.323Z,5.60
2022-11-29T09:26:33.890Z,5.60
2022-11-29T09:29:03.324Z,5.70
2022-11-29T09:31:31.366Z,5.70
2022-11-29T09:33:58.242Z,5.70
2022-11-29T09:36:28.903Z,5.70
2022-11-29T09:39:02.577Z,5.70
2022-11-29T09:41:38.330Z,5.80
2022-11-29T09:44:17.179Z,5.70
2022-11-29T09:47:03.900Z,5.70
2022-11-29T09:49:30.654Z,5.70
2022-11-29T09:52:25.215Z,5.70
2022-11-29T09:55:38.819Z,5.70
2022-11-29T09:58:13.608Z,5.80
2022-11-29T10:00:49.141Z,5.80
2022-11-29T10:03:25.488Z,5.80
2022-11-29T10:06:02.424Z,6.00
2022-11-29T10:08:42.112Z,6.00
2022-11-29T10:11:21.006Z,5.90
2022-11-29T10:13:54.300Z,5.80
2022-11-29T10:16:41.759Z,5.80
2022-11-29T10:19:21.796Z,5.90
2022-11-29T10:22:05.000Z,6.00
2022-11-29T10:24:33.474Z,6.10
2022-11-29T10:27:00.394Z,6.30
2022-11-29T10:29:27.263Z,6.30
2022-11-29T10:31:56.704Z,6.10
2022-11-29T10:34:25.917Z,6.00
2022-11-29T10:36:55.625Z,6.10
2022-11-29T10:39:29.501Z,6.20
2022-11-29T10:42:00.384Z,6.20
2022-11-29T10:44:27.393Z,6.20
2022-11-29T10:46:55.795Z,6.10
2022-11-29T10:49:27.617Z,6.10
2022-11-29T10:51:54.452Z,6.10
2022-11-29T10:54:41.610Z,6.00
2022-11-29T10:57:19.828Z,6.00
2022-11-29T11:00:04.490Z,6.00
2022-11-29T11:02:32.338Z,6.10
2022-11-29T11:05:00.564Z,6.10
2022-11-29T11:07:36.860Z,6.30
2022-11-29T11:10:17.313Z,6.10
2022-11-29T11:13:05.477Z,6.10
2022-11-29T11:15:33.412Z,6.10
2022-11-29T11:18:05.907Z,6.20
2022-11-29T11:20:39.975Z,6.20
2022-11-29T11:23:27.132Z,6.00
2022-11-29T11:26:06.679Z,6.00
2022-11-29T11:28:44.313Z,6.00
2022-11-29T11:31:12.527Z,6.00
2022-11-29T11:33:40.458Z,6.20
2022-11-29T11:36:10.126Z,6.00
2022-11-29T11:38:49.790Z,6.00
2022-11-29T11:42:02.563Z,5.90
2022-11-29T11:44:49.195Z,5.90
2022-11-29T11:47:20.553Z,5.90
2022-11-29T11:50:00.421Z,6.20
2022-11-29T11:52:39.809Z,6.00
2022-11-29T11:55:22.185Z,6.00
2022-11-29T11:58:09.680Z,6.00
2022-11-29T12:01:02.927Z,6.00
2022-11-29T12:03:31.381Z,6.00
2022-11-29T12:06:21.428Z,5.90
2022-11-29T12:08:49.459Z,5.90
2022-11-29T12:11:18.629Z,6.00
2022-11-29T12:13:55.414Z,5.90
2022-11-29T12:16:29.225Z,5.90
2022-11-29T12:19:17.283Z,6.10
2022-11-29T12:21:52.423Z,6.00
2022-11-29T12:24:48.485Z,6.10
2022-11-29T12:27:16.102Z,6.10
2022-11-29T12:29:42.935Z,6.00
2022-11-29T12:32:25.788Z,5.90
2022-11-29T12:35:20.575Z,5.90
2022-11-29T12:38:03.005Z,5.90
2022-11-29T12:41:01.837Z,5.90
2022-11-29T12:43:37.511Z,5.90
2022-11-29T12:46:22.539Z,5.90
2022-11-29T12:49:03.123Z,6.10
2022-11-29T12:51:45.132Z,6.00
2022-11-29T12:54:11.922Z,6.00
2022-11-29T12:56:53.123Z,6.00
2022-11-29T12:59:44.105Z,6.00
2022-11-29T13:02:42.514Z,6.00
2022-11-29T13:05:09.602Z,6.10
2022-11-29T13:08:01.360Z,6.10
2022-11-29T13:11:04.177Z,6.20
2022-11-29T13:14:13.731Z,6.00
2022-11-29T13:16:45.633Z,6.00
2022-11-29T13:19:21.894Z,6.00
2022-11-29T13:21:51.563Z,6.10
2022-11-29T13:24:43.403Z,6.00
2022-11-29T13:27:17.577Z,5.90
2022-11-29T13:29:45.505Z,5.80
2022-11-29T13:32:29.749Z,5.80
2022-11-29T13:35:01.463Z,5.90
2022-11-29T13:38:21.396Z,6.20
2022-11-29T13:41:07.613Z,5.90
2022-11-29T13:43:49.123Z,5.90
2022-11-29T13:46:33.825Z,6.00
2022-11-29T13:49:00.764Z,6.00
2022-11-29T13:51:31.631Z,6.00
2022-11-29T13:54:03.172Z,6.00
2022-11-29T13:56:43.282Z,6.00
2022-11-29T13:59:24.676Z,6.00
2022-11-29T14:01:53.922Z,6.00
2022-11-29T14:04:46.214Z,5.90
2022-11-29T14:07:19.539Z,5.90
2022-11-29T14:10:13.763Z,5.80
2022-11-29T14:12:50.334Z,5.90
2022-11-29T14:15:26.650Z,5.80
2022-11-29T14:17:55.418Z,5.80
2022-11-29T14:20:25.309Z,5.70
2022-11-29T14:23:04.138Z,5.70
2022-11-29T14:25:52.438Z,5.70
2022-11-29T14:28:22.536Z,5.70
2022-11-29T14:30:54.543Z,5.90
2022-11-29T14:33:27.102Z,5.80
2022-11-29T14:36:07.567Z,5.80
2022-11-29T14:38:54.680Z,5.70
2022-11-29T14:41:33.847Z,5.80
2022-11-29T14:44:28.270Z,5.90
2022-11-29T14:47:00.999Z,5.80
2022-11-29T14:49:29.998Z,5.80
2022-11-29T14:52:13.853Z,5.80
2022-11-29T14:55:06.414Z,5.80
2022-11-29T14:57:48.137Z,5.80
2022-11-29T15:00:15.944Z,5.70
2022-11-29T15:02:52.189Z,5.70
2022-11-29T15:05:30.833Z,5.60
2022-11-29T15:08:09.382Z,5.60
2022-11-29T15:10:41.171Z,5.70
2022-11-29T15:13:13.433Z,5.70
2022-11-29T15:15:55.569Z,5.70
2022-11-29T15:18:25.433Z,5.70
2022-11-29T15:21:10.997Z,5.70
2022-11-29T15:23:45.032Z,5.60
2022-11-29T15:26:18.854Z,5.60
2022-11-29T15:28:45.848Z,5.60
2022-11-29T15:31:16.581Z,5.60
2022-11-29T15:33:45.950Z,5.60
2022-11-29T15:36:15.662Z,5.50
2022-11-29T15:38:54.429Z,5.60
2022-11-29T15:41:41.830Z,5.50
2022-11-29T15:44:22.176Z,5.50
2022-11-29T15:46:48.992Z,5.50
2022-11-29T15:49:23.085Z,5.50
2022-11-29T15:52:00.009Z,5.50
2022-11-29T15:54:33.473Z,5.50
2022-11-29T15:57:11.104Z,5.60
2022-11-29T15:59:43.678Z,5.60
2022-11-29T16:02:37.124Z,5.60
2022-11-29T16:05:11.181Z,5.60
2022-11-29T16:07:39.382Z,5.50
2022-11-29T16:10:18.739Z,5.80
2022-11-29T16:12:58.033Z,5.60
2022-11-29T16:15:35.701Z,5.40
2022-11-29T16:18:11.783Z,5.50
2022-11-29T16:20:39.209Z,5.60
2022-11-29T16:23:11.418Z,5.60
2022-11-29T16:25:55.355Z,5.50
2022-11-29T16:28:23.267Z,5.40
2022-11-29T16:30:50.193Z,5.40
2022-11-29T16:33:21.450Z,5.50
2022-11-29T16:35:48.524Z,5.50
2022-11-29T16:38:22.463Z,5.50
2022-11-29T16:41:21.442Z,5.50
2022-11-29T16:43:53.891Z,5.50
2022-11-29T16:46:20.883Z,5.50
2022-11-29T16:48:49.549Z,5.50
2022-11-29T16:51:35.854Z,5.60
2022-11-29T16:54:27.700Z,5.60
2022-11-29T16:56:57.072Z,5.50
2022-11-29T16:59:28.374Z,5.50
2022-11-29T17:01:56.841Z,5.50
2022-11-29T17:04:25.204Z,5.60
2022-11-29T17:06:56.545Z,5.50
2022-11-29T17:09:27.107Z,5.50
2022-11-29T17:11:55.536Z,5.40
2022-11-29T17:14:22.547Z,5.60
2022-11-29T17:16:49.858Z,5.50
2022-11-29T17:19:17.081Z,5.50
2022-11-29T17:21:44.505Z,5.50
2022-11-29T17:24:17.485Z,5.50
2022-11-29T17:26:45.078Z,5.60
2022-11-29T17:29:13.676Z,5.50
2022-11-29T17:31:42.731Z,5.50
2022-11-29T17:34:09.630Z,5.50
2022-11-29T17:36:36.846Z,5.40
2022-11-29T17:39:05.206Z,5.40
2022-11-29T17:41:32.943Z,5.50
2022-11-29T17:44:00.430Z,5.50
2022-11-29T17:46:30.028Z,5.50
2022-11-29T17:48:59.508Z,5.60
2022-11-29T17:51:51.222Z,5.60
2022-11-29T17:54:13.445Z,5.50
2022-11-29T17:56:40.310Z,5.60
2022-11-29T17:59:07.111Z,5.40
2022-11-29T18:01:35.867Z,5.50
2022-11-29T18:04:04.635Z,5.50
2022-11-29T18:06:35.075Z,5.50
2022-11-29T18:09:03.381Z,5.50
2022-11-29T18:11:43.272Z,5.50
2022-11-29T18:14:16.069Z,5.60
2022-11-29T18:16:44.943Z,5.60
2022-11-29T18:19:14.148Z,5.50
2022-11-29T18:21:41.026Z,5.50
2022-11-29T18:24:08.485Z,5.50
2022-11-29T18:26:36.668Z,5.50
2022-11-29T18:29:04.860Z,5.60
2022-11-29T18:31:34.753Z,5.60
2022-11-29T18:34:03.571Z,5.60
2022-11-29T18:36:33.662Z,5.50
2022-11-29T18:39:06.443Z,5.60
2022-11-29T18:41:33.449Z,5.40
2022-11-29T18:44:05.755Z,5.50
2022-11-29T18:46:35.522Z,5.40
2022-11-29T18:49:07.490Z,5.40
2022-11-29T18:51:35.901Z,5.50
2022-11-29T18:54:03.263Z,5.60
2022-11-29T18:56:32.804Z,5.60
2022-11-29T18:59:03.255Z,5.60
2022-11-29T19:01:34.370Z,5.60
2022-11-29T19:04:01.896Z,5.60
2022-11-29T19:06:38.918Z,5.60
2022-11-29T19:09:08.539Z,5.60
2022-11-29T19:11:35.910Z,5.60
2022-11-29T19:14:11.314Z,5.60
2022-11-29T19:16:39.564Z,5.50
2022-11-29T19:19:06.459Z,5.50
2022-11-29T19:21:34.580Z,5.60
2022-11-29T19:24:13.118Z,5.50
2022-11-29T19:26:40.614Z,5.50
2022-11-29T19:29:07.754Z,5.50
2022-11-29T19:31:34.638Z,5.60
2022-11-29T19:34:01.503Z,5.60
2022-11-29T19:36:30.745Z,5.60
2022-11-29T19:39:01.913Z,5.50
2022-11-29T19:41:33.644Z,5.60
2022-11-29T19:44:03.590Z,5.50
2022-11-29T19:46:39.416Z,5.50
2022-11-29T19:49:07.964Z,5.60
2022-11-29T19:51:34.946Z,5.50
2022-11-29T19:54:04.970Z,5.50
2022-11-29T19:56:32.644Z,5.60
2022-11-29T19:58:59.930Z,5.50
2022-11-29T20:01:36.217Z,5.60
2022-11-29T20:04:04.940Z,5.50
2022-11-29T20:06:31.770Z,5.50
2022-11-29T20:08:58.623Z,5.40
2022-11-29T20:11:26.102Z,5.50
2022-11-29T20:13:55.353Z,5.50
2022-11-29T20:16:22.621Z,5.50
2022-11-29T20:18:51.641Z,5.50
2022-11-29T20:21:25.506Z,5.40
2022-11-29T20:24:04.306Z,5.40
2022-11-29T20:26:33.225Z,5.30
2022-11-29T20:29:01.777Z,5.30
2022-11-29T20:31:29.883Z,5.30
2022-11-29T20:33:57.543Z,5.30
2022-11-29T20:37:02.127Z,5.40
2022-11-29T20:39:34.982Z,5.50
2022-11-29T20:42:29.449Z,5.50
2022-11-29T20:44:58.516Z,5.50
2022-11-29T20:47:33.252Z,5.50
2022-11-29T20:50:00.223Z,5.40
2022-11-29T20:52:54.045Z,5.30
2022-11-29T20:55:20.875Z,5.40
2022-11-29T20:57:47.963Z,5.50
2022-11-29T21:00:15.885Z,5.50
2022-11-29T21:02:42.777Z,5.50
2022-11-29T21:05:09.843Z,5.50
2022-11-29T21:07:36.925Z,5.40
2022-11-29T21:10:05.041Z,5.30
2022-11-29T21:12:32.469Z,5.30
2022-11-29T21:14:59.655Z,5.30
2022-11-29T21:17:33.164Z,5.30
2022-11-29T21:20:00.969Z,5.30
2022-11-29T21:22:36.724Z,5.40
2022-11-29T21:25:35.260Z,5.30
2022-11-29T21:28:04.131Z,5.30
2022-11-29T21:30:31.164Z,5.30
2022-11-29T21:32:58.285Z,5.20
2022-11-29T21:35:26.127Z,5.30
2022-11-29T21:37:57.256Z,5.30
2022-11-29T21:40:24.533Z,5.30
2022-11-29T21:42:51.759Z,5.40
2022-11-29T21:45:18.685Z,5.50
2022-11-29T21:47:46.254Z,5.50
2022-11-29T21:50:13.463Z,5.40
2022-11-29T21:52:40.678Z,5.40
2022-11-29T21:55:07.862Z,5.30
2022-11-29T21:57:34.669Z,5.40
2022-11-29T22:00:01.610Z,5.40
2022-11-29T22:02:28.578Z,5.40
2022-11-29T22:04:55.430Z,5.30
2022-11-29T22:07:22.314Z,5.50
2022-11-29T22:09:49.219Z,5.50
2022-11-29T22:12:33.119Z,5.50
2022-11-29T22:15:01.334Z,5.40
2022-11-29T22:17:28.213Z,5.40
2022-11-29T22:19:55.056Z,5.30
2022-11-29T22:22:21.960Z,5.30
2022-11-29T22:24:49.083Z,5.20
2022-11-29T22:27:18.351Z,5.30
2022-11-29T22:29:45.306Z,5.30
2022-11-29T22:32:12.083Z,5.30
2022-11-29T22:34:38.876Z,5.30
2022-11-29T22:37:05.709Z,5.30
2022-11-29T22:39:32.681Z,5.30
2022-11-29T22:41:59.486Z,5.30
2022-11-29T22:44:26.297Z,5.30
2022-11-29T22:46:53.324Z,5.40
2022-11-29T22:49:20.272Z,5.40
2022-11-29T22:51:47.084Z,5.40
2022-11-29T22:54:17.386Z,5.40
2022-11-29T22:56:45.843Z,5.50
2022-11-29T22:59:13.795Z,5.50
2022-11-29T23:01:41.692Z,5.40
2022-11-29T23:04:10.134Z,5.40
2022-11-29T23:06:39.121Z,5.40
2022-11-29T23:09:10.659Z,5.40
2022-11-29T23:11:38.458Z,5.30
2022-11-29T23:14:05.260Z,5.50
2022-11-29T23:16:32.910Z,5.40
2022-11-29T23:19:00.704Z,5.30
2022-11-29T23:21:33.138Z,5.40
2022-11-29T23:24:01.489Z,5.30
2022-11-29T23:26:31.082Z,5.30
2022-11-29T23:28:58.530Z,5.30
2022-11-29T23:31:25.520Z,5.40
2022-11-29T23:33:52.433Z,5.40
2022-11-29T23:36:19.777Z,5.30
2022-11-29T23:38:46.707Z,5.30
2022-11-29T23:41:13.961Z,5.30
2022-11-29T23:43:44.951Z,5.40
2022-11-29T23:46:20.796Z,5.40
2022-11-29T23:48:48.220Z,5.40
2022-11-29T23:51:16.098Z,5.40
2022-11-29T23:53:43.397Z,5.30
2022-11-29T23:56:14.371Z,5.40
2022-11-29T23:58:41.872Z,5.50
